Time;durP1;ratioP1;P1;durP2;ratioP2;P2;SDS_P1;SDS_P2;PMS_P1;PMS_P2;Temp;Humidity;BMP_temperature;BMP_pressure;BME280_temperature;BME280_humidity;BME280_pressure;Samples;Min_cycle;Max_cycle;Signal;HPM_P1;HPM_P2
2022/07/11 00:02:08;;;;;;;5.82;1.98;;;16.20;99.90;;;;;;4993794;28;20061;-82
2022/07/11 00:04:34;;;;;;;7.05;1.45;;;16.20;99.90;;;;;;5007416;28;20049;-82
2022/07/11 00:07:01;;;;;;;5.32;1.63;;;16.20;99.90;;;;;;5009473;28;20539;-82
2022/07/11 00:09:28;;;;;;;5.22;1.77;;;16.20;99.90;;;;;;5022807;28;20041;-82
2022/07/11 00:11:58;;;;;;;4.35;1.52;;;16.20;99.90;;;;;;5007968;28;20041;-82
2022/07/11 00:14:24;;;;;;;3.38;1.30;;;16.10;99.90;;;;;;5008333;28;20141;-82
2022/07/11 00:16:52;;;;;;;6.00;1.55;;;16.20;99.90;;;;;;5005010;28;20568;-82
2022/07/11 00:19:21;;;;;;;6.07;1.30;;;16.10;99.90;;;;;;5008421;28;20044;-82
2022/07/11 00:21:51;;;;;;;5.32;1.50;;;16.10;99.90;;;;;;4990682;28;20034;-82
2022/07/11 00:24:19;;;;;;;6.57;1.50;;;16.10;99.90;;;;;;5008830;28;20110;-82
2022/07/11 00:26:46;;;;;;;3.92;1.25;;;16.00;99.90;;;;;;4992283;28;20091;-82
2022/07/11 00:29:11;;;;;;;3.40;1.35;;;16.10;99.90;;;;;;4993674;28;20092;-82
2022/07/11 00:31:37;;;;;;;4.78;1.35;;;16.10;99.90;;;;;;5006218;28;20475;-82
2022/07/11 00:34:05;;;;;;;3.40;1.58;;;16.10;99.90;;;;;;5008218;28;20353;-82
2022/07/11 00:36:33;;;;;;;4.90;1.15;;;16.10;99.90;;;;;;5009576;28;20101;-82
2022/07/11 00:39:00;;;;;;;7.18;2.08;;;16.10;99.90;;;;;;5009984;28;20149;-82
2022/07/11 00:41:27;;;;;;;2.97;1.50;;;16.00;99.90;;;;;;4993920;28;20034;-82
2022/07/11 00:43:57;;;;;;;4.07;2.00;;;16.00;99.90;;;;;;5005858;28;20037;-82
2022/07/11 00:46:26;;;;;;;5.57;2.15;;;16.00;99.90;;;;;;5007312;28;20057;-82
2022/07/11 00:48:53;;;;;;;6.20;2.05;;;16.00;99.90;;;;;;5007705;28;20070;-82
2022/07/11 00:51:23;;;;;;;4.00;2.30;;;15.90;99.90;;;;;;5007371;28;20491;-82
2022/07/11 00:53:53;;;;;;;4.13;1.92;;;16.00;99.90;;;;;;5007730;28;20042;-82
2022/07/11 00:56:24;;;;;;;6.03;2.50;;;15.90;99.90;;;;;;5001963;28;20034;-82
2022/07/11 00:58:51;;;;;;;7.05;2.30;;;15.90;99.90;;;;;;5007692;28;20034;-82
2022/07/11 01:01:17;;;;;;;8.07;2.17;;;15.90;99.90;;;;;;5007630;28;20042;-82
2022/07/11 01:03:43;;;;;;;4.45;2.17;;;15.90;99.90;;;;;;5007029;28;20046;-82
2022/07/11 01:06:10;;;;;;;8.27;3.65;;;15.80;99.90;;;;;;5005325;28;20056;-82
2022/07/11 01:08:38;;;;;;;10.13;3.25;;;15.90;99.90;;;;;;5007846;28;20057;-82
2022/07/11 01:11:12;;;;;;;5.03;2.65;;;15.90;99.90;;;;;;5006217;28;20042;-82
2022/07/11 01:13:38;;;;;;;7.82;2.67;;;15.80;99.90;;;;;;5008455;28;20989;-82
2022/07/11 01:16:14;;;;;;;3.70;2.28;;;15.80;99.90;;;;;;5005729;28;20069;-82
2022/07/11 01:18:49;;;;;;;6.50;2.58;;;15.80;99.90;;;;;;4991000;28;20061;-82
2022/07/11 01:21:38;;;;;;;7.30;2.70;;;15.80;99.90;;;;;;5005249;28;20038;-82
2022/07/11 01:24:05;;;;;;;6.88;3.65;;;15.80;99.90;;;;;;5009154;28;20389;-82
2022/07/11 01:26:32;;;;;;;4.20;3.25;;;15.80;99.90;;;;;;4991626;28;20057;-82
2022/07/11 01:29:24;;;;;;;7.03;2.50;;;15.80;99.90;;;;;;5005438;28;20050;-82
2022/07/11 01:31:50;;;;;;;11.35;2.60;;;15.80;99.90;;;;;;5006177;28;20050;-83
2022/07/11 01:34:15;;;;;;;10.05;2.55;;;15.80;99.90;;;;;;5006083;28;20059;-83
2022/07/11 01:36:42;;;;;;;5.20;2.75;;;15.80;99.90;;;;;;5000168;28;20046;-82
2022/07/11 01:39:08;;;;;;;5.50;2.78;;;15.70;99.90;;;;;;4990416;28;20041;-82
2022/07/11 01:41:34;;;;;;;6.30;2.92;;;15.70;99.90;;;;;;5011552;28;20657;-82
2022/07/11 01:44:00;;;;;;;4.82;2.40;;;15.70;99.90;;;;;;5006140;28;20077;-82
2022/07/11 01:46:25;;;;;;;5.47;2.45;;;15.70;99.90;;;;;;5005302;28;20056;-82
2022/07/11 01:48:51;;;;;;;4.25;2.63;;;15.70;99.90;;;;;;5007126;28;20034;-82
2022/07/11 01:51:17;;;;;;;5.93;2.60;;;15.70;99.90;;;;;;4990452;28;20492;-83
2022/07/11 01:53:43;;;;;;;6.32;3.22;;;15.70;99.90;;;;;;5004905;28;20050;-82
2022/07/11 01:56:08;;;;;;;5.25;2.55;;;15.70;99.90;;;;;;4991946;28;20104;-82
2022/07/11 01:58:34;;;;;;;5.30;2.85;;;15.70;99.90;;;;;;4989618;28;20046;-82
2022/07/11 02:01:00;;;;;;;4.40;3.10;;;15.70;99.90;;;;;;5002683;28;20460;-82
2022/07/11 02:03:26;;;;;;;4.07;2.28;;;15.70;99.90;;;;;;5009546;28;20136;-82
2022/07/11 02:05:52;;;;;;;7.00;2.75;;;15.60;99.90;;;;;;5008195;28;20069;-82
2022/07/11 02:08:18;;;;;;;5.00;2.83;;;15.70;99.90;;;;;;4988529;28;20037;-82
2022/07/11 02:10:49;;;;;;;5.93;2.78;;;15.70;99.90;;;;;;5006346;28;20034;-82
2022/07/11 02:13:20;;;;;;;4.70;2.67;;;15.70;99.90;;;;;;5006412;28;20077;-82
2022/07/11 02:15:49;;;;;;;4.15;2.33;;;15.70;99.90;;;;;;5007083;28;20108;-83
2022/07/11 02:18:15;;;;;;;5.57;2.38;;;15.70;99.90;;;;;;5020131;28;20046;-82
2022/07/11 02:20:42;;;;;;;3.33;2.75;;;15.70;99.90;;;;;;5005849;28;20378;-82
2022/07/11 02:23:08;;;;;;;5.82;2.47;;;15.50;99.90;;;;;;5004382;28;20045;-82
2022/07/11 02:25:40;;;;;;;4.70;2.35;;;15.70;99.90;;;;;;5006109;28;20038;-82
2022/07/11 02:28:09;;;;;;;4.20;2.08;;;15.70;99.90;;;;;;5007799;28;20432;-82
2022/07/11 02:30:39;;;;;;;4.75;2.28;;;15.70;99.90;;;;;;5004065;28;20042;-82
2022/07/11 02:33:07;;;;;;;4.57;2.47;;;15.70;99.90;;;;;;5006069;28;20084;-83
2022/07/11 02:35:33;;;;;;;5.70;2.10;;;15.70;99.90;;;;;;4987082;28;20050;-82
2022/07/11 02:38:01;;;;;;;2.65;2.05;;;15.70;99.90;;;;;;5003083;28;20073;-82
2022/07/11 02:40:29;;;;;;;10.32;3.05;;;15.70;99.90;;;;;;4991402;28;20134;-82
2022/07/11 02:42:55;;;;;;;4.78;2.33;;;15.70;99.90;;;;;;5003253;28;20172;-82
2022/07/11 02:45:21;;;;;;;6.38;2.60;;;15.70;99.90;;;;;;5005317;28;20136;-82
2022/07/11 02:47:47;;;;;;;5.68;2.55;;;15.70;99.90;;;;;;4988971;28;20587;-82
2022/07/11 02:50:13;;;;;;;7.13;2.45;;;15.60;99.90;;;;;;5003913;28;20488;-82
2022/07/11 02:52:40;;;;;;;4.55;1.85;;;15.60;99.90;;;;;;5006118;28;20053;-83
2022/07/11 02:55:08;;;;;;;3.85;2.42;;;15.70;99.90;;;;;;4989260;28;20038;-83
2022/07/11 02:57:35;;;;;;;4.32;2.50;;;15.70;99.90;;;;;;5006503;28;20042;-82
2022/07/11 03:00:02;;;;;;;7.20;2.63;;;15.70;99.90;;;;;;4988809;28;20124;-82
2022/07/11 03:02:28;;;;;;;10.02;2.55;;;15.70;99.90;;;;;;4987978;28;20033;-83
2022/07/11 03:04:53;;;;;;;4.63;2.40;;;15.70;99.90;;;;;;5004861;28;20100;-82
2022/07/11 03:07:19;;;;;;;4.60;2.17;;;15.70;99.90;;;;;;5007867;28;20038;-82
2022/07/11 03:09:45;;;;;;;5.28;2.67;;;15.70;99.90;;;;;;5004970;28;20077;-83
2022/07/11 03:12:10;;;;;;;5.10;2.97;;;15.70;99.90;;;;;;5011068;28;20049;-82
2022/07/11 03:14:36;;;;;;;4.40;3.10;;;15.70;99.90;;;;;;5003189;28;21018;-82
2022/07/11 03:17:06;;;;;;;6.95;2.58;;;15.70;99.90;;;;;;5011253;28;20038;-82
2022/07/11 03:19:32;;;;;;;9.68;3.55;;;15.70;99.90;;;;;;5012112;28;20412;-83
2022/07/11 03:21:58;;;;;;;6.97;3.90;;;15.70;99.90;;;;;;4991403;28;20046;-83
2022/07/11 03:24:24;;;;;;;6.00;3.13;;;15.70;99.90;;;;;;5005487;28;20030;-83
2022/07/11 03:26:50;;;;;;;9.50;3.10;;;15.70;99.90;;;;;;5003673;28;20100;-82
2022/07/11 03:29:15;;;;;;;5.85;3.08;;;15.70;99.90;;;;;;5003185;28;20505;-83
2022/07/11 03:31:41;;;;;;;3.88;2.95;;;15.80;99.90;;;;;;5002389;28;20119;-83
2022/07/11 03:34:06;;;;;;;10.85;3.30;;;15.70;99.90;;;;;;5002981;28;20052;-82
2022/07/11 03:36:34;;;;;;;9.10;3.42;;;15.70;99.90;;;;;;5004905;28;20053;-82
2022/07/11 03:38:59;;;;;;;5.63;3.00;;;15.70;99.90;;;;;;5002358;28;20066;-82
2022/07/11 03:41:25;;;;;;;4.78;2.95;;;15.70;99.90;;;;;;5005105;28;20065;-82
2022/07/11 03:43:50;;;;;;;8.48;3.38;;;15.70;99.90;;;;;;5005141;28;20050;-82
2022/07/11 03:46:16;;;;;;;5.88;3.28;;;15.70;99.90;;;;;;5001160;28;20120;-82
2022/07/11 03:48:42;;;;;;;5.22;3.17;;;15.60;99.90;;;;;;5004646;28;20466;-82
2022/07/11 03:51:07;;;;;;;6.20;3.22;;;15.70;99.90;;;;;;5005110;28;20038;-82
2022/07/11 03:53:33;;;;;;;5.45;2.90;;;15.60;99.90;;;;;;5005432;28;20046;-82
2022/07/11 03:55:59;;;;;;;5.32;3.25;;;15.60;99.90;;;;;;5008178;28;20046;-82
2022/07/11 03:58:25;;;;;;;6.00;3.10;;;15.60;99.90;;;;;;5005849;28;20099;-82
2022/07/11 04:00:51;;;;;;;4.72;2.60;;;15.60;99.90;;;;;;5001869;28;20547;-82
2022/07/11 04:03:19;;;;;;;4.65;2.65;;;15.70;99.90;;;;;;4990308;28;20038;-83
2022/07/11 04:05:45;;;;;;;4.00;2.50;;;15.60;99.90;;;;;;5005325;28;20053;-82
2022/07/11 04:08:10;;;;;;;6.05;2.75;;;15.70;99.90;;;;;;4989391;28;20061;-82
2022/07/11 04:10:36;;;;;;;3.17;2.45;;;15.60;99.90;;;;;;5003418;28;20045;-82
2022/07/11 04:13:02;;;;;;;5.05;2.40;;;15.70;99.90;;;;;;5003687;28;20141;-82
2022/07/11 04:15:27;;;;;;;6.55;2.92;;;15.70;99.90;;;;;;5001650;28;20053;-82
2022/07/11 04:17:56;;;;;;;5.15;3.30;;;15.70;99.90;;;;;;5002689;28;20052;-83
2022/07/11 04:20:21;;;;;;;5.70;2.80;;;15.70;99.90;;;;;;4986571;28;20129;-82
2022/07/11 04:22:47;;;;;;;4.03;2.42;;;15.70;99.90;;;;;;5002000;28;20133;-83
2022/07/11 04:25:12;;;;;;;3.83;2.60;;;15.70;99.90;;;;;;5004206;28;20050;-83
2022/07/11 04:27:38;;;;;;;4.85;1.90;;;15.70;99.90;;;;;;5008733;28;20038;-83
2022/07/11 04:30:04;;;;;;;3.80;1.58;;;15.70;99.90;;;;;;4988171;28;20038;-83
2022/07/11 04:32:35;;;;;;;2.63;1.13;;;15.70;99.90;;;;;;5005803;28;20053;-83
2022/07/11 04:36:11;;;;;;;5.88;1.63;;;15.80;99.90;;;;;;5006968;28;20377;-85
2022/07/11 04:46:24;;;;;;;2.08;0.98;;;15.90;99.90;;;;;;5006169;28;20057;-84
2022/07/11 04:49:02;;;;;;;4.95;1.35;;;15.90;99.90;;;;;;4984212;28;20073;-83
2022/07/11 04:51:29;;;;;;;2.70;1.05;;;16.00;99.90;;;;;;4997863;28;20069;-84
2022/07/11 04:53:57;;;;;;;5.15;1.23;;;16.00;99.90;;;;;;4981722;28;20711;-83
2022/07/11 04:56:23;;;;;;;2.55;1.00;;;16.00;99.90;;;;;;5015376;28;20053;-83
2022/07/11 04:58:49;;;;;;;2.50;1.30;;;16.00;99.90;;;;;;5001827;28;20046;-83
2022/07/11 05:01:15;;;;;;;3.05;1.48;;;16.00;99.90;;;;;;4983404;28;20037;-83
2022/07/11 05:03:41;;;;;;;3.38;1.00;;;16.00;99.90;;;;;;5005407;28;20400;-82
2022/07/11 05:06:06;;;;;;;3.55;1.00;;;16.10;99.90;;;;;;5003502;28;20508;-82
2022/07/11 05:08:36;;;;;;;3.08;1.10;;;16.10;99.90;;;;;;5008092;28;20042;-84
2022/07/11 05:11:03;;;;;;;1.45;0.73;;;16.10;99.90;;;;;;4982161;28;20100;-82
2022/07/11 05:13:29;;;;;;;2.72;0.90;;;16.10;99.90;;;;;;5001807;28;20513;-83
2022/07/11 05:15:54;;;;;;;2.30;1.00;;;16.30;99.90;;;;;;4998217;28;20116;-81
2022/07/11 05:19:13;;;;;;;4.05;0.90;;;16.30;99.90;;;;;;4995793;28;20052;-85
2022/07/11 05:22:10;;;;;;;3.25;0.95;;;16.20;99.90;;;;;;4995340;28;20046;-83
2022/07/11 05:28:57;;;;;;;2.38;0.95;;;16.30;99.90;;;;;;4999030;28;20037;-83
2022/07/11 05:31:33;;;;;;;3.33;0.98;;;16.30;99.90;;;;;;5012606;28;20061;-81
2022/07/11 05:34:01;;;;;;;3.17;1.00;;;16.40;99.90;;;;;;4980481;28;20482;-84
2022/07/11 05:37:04;;;;;;;3.90;0.98;;;16.30;99.90;;;;;;4982814;28;20072;-83
2022/07/11 05:44:19;;;;;;;2.67;0.70;;;16.20;99.90;;;;;;4947015;28;20387;-82
2022/07/11 05:47:23;;;;;;;2.25;0.50;;;16.30;99.90;;;;;;4986340;28;20382;-84
2022/07/11 05:49:49;;;;;;;1.55;0.60;;;16.30;99.90;;;;;;4993482;28;20092;-83
2022/07/11 05:52:15;;;;;;;3.80;0.68;;;16.40;99.90;;;;;;4998564;28;20057;-83
2022/07/11 05:54:41;;;;;;;2.20;0.60;;;16.40;99.90;;;;;;5000656;28;20053;-83
2022/07/11 05:57:08;;;;;;;2.88;0.60;;;16.50;99.90;;;;;;5000245;28;20034;-84
2022/07/11 05:59:35;;;;;;;2.00;0.60;;;16.60;99.90;;;;;;4981707;28;20088;-84
2022/07/11 06:02:02;;;;;;;1.48;0.70;;;16.60;99.90;;;;;;5001751;28;20042;-82
2022/07/11 06:04:28;;;;;;;1.52;0.50;;;16.70;99.90;;;;;;5000580;28;20446;-83
2022/07/11 06:06:53;;;;;;;0.90;0.40;;;17.10;99.90;;;;;;5004350;28;20065;-83
2022/07/11 06:09:19;;;;;;;1.42;0.82;;;16.80;99.90;;;;;;4997688;28;20042;-84
2022/07/11 06:11:44;;;;;;;3.10;0.52;;;17.10;99.90;;;;;;5000632;28;20686;-83
2022/07/11 06:14:10;;;;;;;3.00;0.50;;;16.90;99.90;;;;;;5007012;28;20056;-83
2022/07/11 06:16:36;;;;;;;3.72;0.52;;;17.10;99.90;;;;;;5002141;28;20054;-82
2022/07/11 06:19:29;;;;;;;2.65;0.63;;;17.00;99.90;;;;;;5002727;28;20042;-82
2022/07/11 06:22:14;;;;;;;0.95;0.60;;;17.10;99.90;;;;;;5012927;28;20041;-82
2022/07/11 06:25:05;;;;;;;1.38;0.50;;;17.10;99.90;;;;;;5008625;28;21336;-83
2022/07/11 06:36:12;;;;;;;1.25;0.30;;;17.30;99.90;;;;;;4855769;29;20046;-83
2022/07/11 06:40:09;;;;;;;0.82;0.30;;;17.40;99.90;;;;;;4888928;29;20142;-83
2022/07/11 06:58:05;;;;;;;2.33;0.43;;;17.50;99.90;;;;;;4909686;29;20186;-82
2022/07/11 07:00:33;;;;;;;1.13;0.30;;;17.50;99.90;;;;;;4966414;28;20153;-83
2022/07/11 07:03:23;;;;;;;2.25;0.47;;;17.50;99.90;;;;;;4965606;28;20031;-82
2022/07/11 07:05:49;;;;;;;3.10;0.50;;;17.50;99.90;;;;;;4985022;28;20042;-82
2022/07/11 07:08:16;;;;;;;1.00;0.30;;;17.60;99.90;;;;;;5019835;28;20044;-82
2022/07/11 07:10:51;;;;;;;2.00;0.50;;;17.60;99.90;;;;;;4999789;28;20072;-82
2022/07/11 07:13:30;;;;;;;4.22;0.40;;;17.60;99.90;;;;;;4986714;28;20042;-83
2022/07/11 07:20:01;;;;;;;1.98;0.32;;;17.70;99.90;;;;;;4981333;28;19920;-83
2022/07/11 07:29:32;;;;;;;;;;;;;;;;;;;;;
2022/07/11 07:36:27;;;;;;;0.63;0.20;;;17.70;99.90;;;;;;4898543;29;20059;-83
2022/07/11 07:47:06;;;;;;;;;;;;;;;;;;;;;
2022/07/11 07:49:52;;;;;;;1.40;0.20;;;18.00;99.90;;;;;;4907436;29;20047;-84
2022/07/11 07:52:33;;;;;;;1.45;0.20;;;18.10;99.90;;;;;;4938190;28;20054;-84
2022/07/11 07:55:07;;;;;;;0.85;0.30;;;18.20;99.90;;;;;;4923811;28;20045;-83
2022/07/11 07:58:03;;;;;;;1.90;0.63;;;18.30;99.90;;;;;;4951042;28;20065;-83
2022/07/11 08:07:29;;;;;;;1.85;0.28;;;18.90;99.90;;;;;;4988436;28;20053;-83
2022/07/11 08:10:14;;;;;;;0.75;0.20;;;18.70;99.90;;;;;;5001837;28;20104;-83
2022/07/11 08:13:37;;;;;;;0.20;0.00;;;18.70;99.90;;;;;;5002007;28;20038;-83
2022/07/11 08:16:56;;;;;;;0.10;0.10;;;18.60;99.90;;;;;;5001012;28;21057;-83
2022/07/11 08:20:24;;;;;;;;;;;;;;;;;;;;;
2022/07/11 08:23:47;;;;;;;;;;;;;;;;;;;;;
2022/07/11 08:26:15;;;;;;;0.30;0.10;;;18.30;99.90;;;;;;4942767;28;20069;-83
2022/07/11 08:28:48;;;;;;;0.90;0.10;;;18.60;99.90;;;;;;4998856;28;20054;-83
2022/07/11 08:31:19;;;;;;;0.45;0.15;;;18.80;99.90;;;;;;4998342;28;20041;-83
2022/07/11 08:34:04;;;;;;;;;;;;;;;;;;;;;
2022/07/11 08:36:44;;;;;;;1.48;0.10;;;19.40;99.90;;;;;;5000864;28;20048;-83
2022/07/11 08:39:38;;;;;;;0.50;0.10;;;19.70;99.90;;;;;;4995450;28;20532;-83
2022/07/11 08:42:47;;;;;;;1.33;0.10;;;20.10;99.90;;;;;;4973565;28;20049;-83
2022/07/11 08:45:43;;;;;;;;;;;;;;;;;;;;;
2022/07/11 08:48:59;;;;;;;0.13;0.10;;;21.30;99.90;;;;;;4990806;28;20040;-84
2022/07/11 08:52:05;;;;;;;0.32;0.10;;;21.50;99.90;;;;;;4986411;28;20044;-84
2022/07/11 08:55:08;;;;;;;1.17;0.28;;;21.60;99.90;;;;;;4983176;28;20046;-83
2022/07/11 09:43:19;;;;;;;1.35;0.47;;;20.70;99.90;;;;;;4833538;29;20042;-83
2022/07/11 09:46:01;;;;;;;;;;;;;;;;;;;;;
2022/07/11 09:49:09;;;;;;;;;;;;;;;;;;;;;
2022/07/11 09:51:48;;;;;;;0.20;0.00;;;20.60;99.90;;;;;;4915713;29;20078;-83
2022/07/11 09:54:56;;;;;;;0.35;0.10;;;20.60;99.90;;;;;;4901450;29;20499;-84
2022/07/11 10:19:36;;;;;;;;;;;;;;;;;;;;;
2022/07/11 10:26:27;;;;;;;0.20;0.10;;;20.90;99.90;;;;;;4826091;29;20094;-84
2022/07/11 10:36:28;;;;;;;0.30;0.10;;;20.90;99.90;;;;;;5045112;22;20060;-84
2022/07/11 10:39:48;;;;;;;;;;;;;;;;;;;;;
2022/07/11 10:43:27;;;;;;;;;;;;;;;;;;;;;
2022/07/11 10:47:26;;;;;;;;;;;;;;;;;;;;;
2022/07/11 10:51:23;;;;;;;;;;;;;;;;;;;;;
2022/07/11 10:54:44;;;;;;;1.10;0.10;;;20.80;99.90;;;;;;4914652;29;20042;-84
2022/07/11 10:58:15;;;;;;;0.32;0.10;;;20.80;99.90;;;;;;4889502;28;20046;-84
2022/07/11 11:05:26;;;;;;;2.90;0.17;;;20.80;99.90;;;;;;4939377;28;20669;-84
2022/07/11 11:08:38;;;;;;;1.35;0.17;;;20.90;99.90;;;;;;4974799;28;20645;-84
2022/07/11 11:11:50;;;;;;;3.08;0.10;;;20.90;99.90;;;;;;4920572;28;20051;-84
2022/07/11 11:14:57;;;;;;;0.68;0.10;;;20.80;99.90;;;;;;4923294;28;20939;-84
2022/07/11 11:21:13;;;;;;;0.73;0.10;;;20.80;99.90;;;;;;4938753;28;20406;-84
2022/07/11 11:24:18;;;;;;;0.35;0.10;;;20.80;99.90;;;;;;4974144;28;20038;-84
2022/07/11 11:31:18;;;;;;;;;;;;;;;;;;;;;
2022/07/11 11:46:23;;;;;;;0.40;0.00;;;21.00;99.90;;;;;;4857404;29;20068;-84
2022/07/11 11:49:21;;;;;;;;;;;;;;;;;;;;;
2022/07/11 11:52:24;;;;;;;0.52;0.10;;;21.10;99.90;;;;;;4897864;29;20059;-84
2022/07/11 11:55:16;;;;;;;;;;;;;;;;;;;;;
2022/07/11 11:58:53;;;;;;;;;;;;;;;;;;;;;
2022/07/11 12:02:54;;;;;;;0.75;0.15;;;21.30;99.90;;;;;;4808764;29;20096;-84
2022/07/11 12:09:23;;;;;;;;;;;;;;;;;;;;;
2022/07/11 12:13:02;;;;;;;;;;;;;;;;;;;;;
2022/07/11 12:16:49;;;;;;;;;;;;;;;;;;;;;
2022/07/11 12:32:02;;;;;;;;;;;;;;;;;;;;;
2022/07/11 12:39:28;;;;;;;;;;;;;;;;;;;;;
2022/07/11 12:42:48;;;;;;;;;;;;;;;;;;;;;
2022/07/11 12:50:45;;;;;;;1.35;0.20;;;21.90;99.90;;;;;;4747904;29;20087;-84
2022/07/11 12:53:28;;;;;;;3.05;0.20;;;21.80;99.90;;;;;;4770929;29;21060;-84
2022/07/11 12:55:57;;;;;;;0.75;0.17;;;21.80;99.90;;;;;;4863264;29;20087;-85
2022/07/11 12:59:02;;;;;;;;;;;;;;;;;;;;;
2022/07/11 13:02:52;;;;;;;0.22;0.10;;;21.80;99.90;;;;;;4945638;28;20067;-84
2022/07/11 13:06:11;;;;;;;2.25;0.88;;;21.70;99.90;;;;;;4933084;28;20051;-84
2022/07/11 13:12:30;;;;;;;5.85;0.50;;;21.80;99.90;;;;;;4978388;28;20096;-84
2022/07/11 13:19:36;;;;;;;0.47;0.00;;;22.20;99.90;;;;;;4984540;28;20045;-84
2022/07/11 13:23:07;;;;;;;;;;;;;;;;;;;;;
2022/07/11 13:25:44;;;;;;;2.13;0.20;;;22.40;99.90;;;;;;4979138;28;20523;-85
2022/07/11 13:28:23;;;;;;;1.67;0.20;;;22.50;99.90;;;;;;4965332;28;20111;-84
2022/07/11 13:31:10;;;;;;;3.33;0.22;;;22.70;99.90;;;;;;4965039;28;20487;-84
2022/07/11 13:33:51;;;;;;;1.55;0.10;;;22.60;99.90;;;;;;4995155;28;20034;-85
2022/07/11 13:37:15;;;;;;;;;;;;;;;;;;;;;
2022/07/11 13:43:39;;;;;;;0.38;0.10;;;23.00;99.90;;;;;;4840573;29;20072;-84
2022/07/11 13:46:29;;;;;;;;;;;;;;;;;;;;;
2022/07/11 13:49:16;;;;;;;;;;;;;;;;;;;;;
2022/07/11 13:52:11;;;;;;;2.27;0.20;;;23.00;99.90;;;;;;4904371;29;20880;-84
2022/07/11 13:55:16;;;;;;;;;;;;;;;;;;;;;
2022/07/11 13:58:44;;;;;;;1.27;0.08;;;23.00;99.90;;;;;;4893364;28;20099;-84
2022/07/11 14:13:10;;;;;;;0.85;0.10;;;23.10;99.90;;;;;;4981123;28;20747;-86
2022/07/11 14:16:13;;;;;;;0.75;0.10;;;23.10;99.90;;;;;;4990306;28;20129;-85
2022/07/11 14:19:00;;;;;;;;;;;;;;;;;;;;;
2022/07/11 14:22:02;;;;;;;;;;;;;;;;;;;;;
2022/07/11 14:25:16;;;;;;;0.43;0.20;;;23.10;99.90;;;;;;4993218;28;20117;-84
2022/07/11 14:28:21;;;;;;;0.85;0.10;;;23.00;99.90;;;;;;4997216;28;20714;-84
2022/07/11 14:31:25;;;;;;;0.20;0.10;;;22.90;99.90;;;;;;4973164;28;20511;-86
2022/07/11 14:34:26;;;;;;;1.75;0.10;;;22.90;99.90;;;;;;4979695;28;20757;-85
2022/07/11 14:37:35;;;;;;;0.85;0.20;;;22.80;99.90;;;;;;4988036;28;20539;-86
2022/07/11 14:41:11;;;;;;;;;;;;;;;;;;;;;
2022/07/11 14:44:26;;;;;;;2.63;0.30;;;22.30;99.90;;;;;;4982951;28;20537;-86
2022/07/11 14:47:37;;;;;;;;;;;;;;;;;;;;;
2022/07/11 14:50:28;;;;;;;0.50;0.10;;;22.50;99.90;;;;;;4986215;28;20045;-85
2022/07/11 14:53:48;;;;;;;;;;;;;;;;;;;;;
2022/07/11 14:56:37;;;;;;;0.10;0.10;;;22.40;99.90;;;;;;4979577;28;20644;-85
2022/07/11 14:59:54;;;;;;;;;;;;;;;;;;;;;
2022/07/11 15:06:21;;;;;;;1.63;0.10;;;22.30;99.90;;;;;;4902510;29;20036;-85
2022/07/11 15:13:06;;;;;;;0.70;0.10;;;22.50;99.90;;;;;;4955613;28;20090;-86
2022/07/11 15:15:57;;;;;;;0.75;0.15;;;22.40;99.90;;;;;;4938503;28;20103;-85
2022/07/11 15:18:55;;;;;;;0.40;0.10;;;22.40;99.90;;;;;;4962668;28;20085;-86
2022/07/11 15:31:45;;;;;;;0.20;0.10;;;22.80;99.90;;;;;;5194261;22;20031;-90
2022/07/11 15:34:10;;;;;;;1.10;0.10;;;22.60;99.90;;;;;;5005607;28;20118;-90
2022/07/11 15:36:37;;;;;;;4.80;0.10;;;22.70;99.90;;;;;;5004941;28;20599;-90
2022/07/11 15:39:02;;;;;;;0.30;0.10;;;22.70;99.90;;;;;;5004474;28;20038;-90
2022/07/11 15:41:28;;;;;;;1.00;0.30;;;22.70;99.90;;;;;;5012865;28;20049;-91
2022/07/11 15:43:54;;;;;;;2.00;0.30;;;22.70;99.90;;;;;;5008987;28;20038;-89
2022/07/11 15:46:21;;;;;;;0.95;0.20;;;22.60;99.90;;;;;;5003035;28;20042;-90
2022/07/11 15:48:47;;;;;;;2.25;0.10;;;22.50;99.90;;;;;;5006504;28;20128;-90
2022/07/11 15:51:12;;;;;;;0.98;0.30;;;22.40;99.90;;;;;;5006970;28;20124;-90
2022/07/11 15:53:38;;;;;;;0.50;0.17;;;22.40;99.90;;;;;;5023920;28;20523;-90
2022/07/11 15:56:04;;;;;;;2.17;0.17;;;22.60;99.90;;;;;;5003302;28;20428;-89
2022/07/11 15:58:32;;;;;;;1.15;0.20;;;22.20;99.90;;;;;;5019012;28;20053;-89
2022/07/11 16:01:01;;;;;;;1.25;0.20;;;22.10;99.90;;;;;;5001252;28;20169;-90
2022/07/11 16:03:28;;;;;;;0.75;0.10;;;22.00;99.90;;;;;;5006084;28;20404;-89
2022/07/11 16:05:57;;;;;;;0.32;0.20;;;22.00;99.90;;;;;;5025032;28;20538;-90
2022/07/11 16:08:24;;;;;;;1.60;0.20;;;22.00;99.90;;;;;;5023055;28;20041;-89
2022/07/11 16:10:51;;;;;;;0.63;0.20;;;22.10;99.90;;;;;;5011503;28;20037;-89
2022/07/11 16:13:16;;;;;;;0.75;0.10;;;22.00;99.90;;;;;;4989843;28;20149;-90
2022/07/11 16:15:47;;;;;;;1.75;0.35;;;22.20;99.90;;;;;;5008971;28;20048;-90
2022/07/11 16:18:14;;;;;;;1.90;0.17;;;21.90;99.90;;;;;;5007066;28;20048;-90
2022/07/11 16:20:41;;;;;;;0.85;0.20;;;22.20;99.90;;;;;;5007874;28;20042;-91
2022/07/11 16:23:06;;;;;;;0.82;0.10;;;22.10;99.90;;;;;;5009462;28;20399;-90
2022/07/11 16:25:32;;;;;;;0.30;0.10;;;22.10;99.90;;;;;;4993200;28;20037;-91
2022/07/11 16:27:58;;;;;;;0.25;0.10;;;22.00;99.90;;;;;;5006412;28;20080;-90
2022/07/11 16:30:35;;;;;;;0.47;0.32;;;22.10;99.90;;;;;;5012287;28;20073;-90
2022/07/11 16:33:01;;;;;;;3.70;0.60;;;22.00;99.90;;;;;;5004569;28;20491;-91
2022/07/11 16:35:27;;;;;;;1.48;0.20;;;22.00;99.90;;;;;;5008041;28;20550;-90
2022/07/11 16:37:52;;;;;;;0.65;0.32;;;22.20;99.90;;;;;;5000290;28;20037;-90
2022/07/11 16:43:21;;;;;;;0.17;0.10;;;22.00;99.90;;;;;;5024736;28;20379;-90
2022/07/11 16:45:53;;;;;;;0.93;0.20;;;22.00;99.90;;;;;;5027995;28;20038;-91
2022/07/11 16:48:24;;;;;;;0.40;0.20;;;21.90;99.90;;;;;;4995226;28;20145;-89
2022/07/11 16:50:50;;;;;;;0.20;0.10;;;21.90;99.90;;;;;;5010320;28;20048;-90
2022/07/11 16:53:15;;;;;;;0.10;0.10;;;21.80;99.90;;;;;;5010309;28;20177;-91
2022/07/11 16:55:44;;;;;;;0.85;0.10;;;21.80;99.90;;;;;;5008677;28;20704;-90
2022/07/11 16:58:10;;;;;;;0.30;0.10;;;21.80;99.90;;;;;;5006409;28;20033;-89
2022/07/11 17:00:37;;;;;;;0.30;0.20;;;21.80;99.90;;;;;;5007998;28;20570;-89
2022/07/11 17:03:04;;;;;;;0.28;0.20;;;21.70;99.90;;;;;;5007864;28;20113;-89
2022/07/11 17:05:30;;;;;;;2.35;0.10;;;21.70;99.90;;;;;;5009625;28;20078;-90
2022/07/11 17:10:41;;;;;;;0.60;0.20;;;21.70;99.90;;;;;;5012528;28;20041;-90
2022/07/11 17:13:07;;;;;;;2.45;0.20;;;21.60;99.90;;;;;;5010918;28;20292;-90
2022/07/11 17:15:33;;;;;;;0.22;0.22;;;21.70;99.90;;;;;;5008799;28;20041;-90
2022/07/11 17:17:58;;;;;;;1.05;0.47;;;21.60;99.90;;;;;;4992628;28;20418;-90
2022/07/11 17:20:24;;;;;;;0.30;0.10;;;21.70;99.90;;;;;;4992807;28;20034;-91
2022/07/11 17:22:50;;;;;;;0.28;0.15;;;21.60;99.90;;;;;;5008108;28;20042;-89
2022/07/11 17:25:15;;;;;;;0.35;0.10;;;21.50;99.90;;;;;;5039639;22;20076;-83
2022/07/11 17:27:42;;;;;;;0.15;0.10;;;21.50;99.90;;;;;;4999966;28;20046;-82
2022/07/11 17:30:10;;;;;;;1.65;0.35;;;21.40;99.90;;;;;;4984762;28;20049;-83
2022/07/11 17:32:36;;;;;;;1.75;0.20;;;21.40;99.90;;;;;;5012351;28;20042;-81
2022/07/11 17:35:03;;;;;;;5.60;0.45;;;21.30;99.90;;;;;;5016977;28;20455;-81
2022/07/11 17:37:29;;;;;;;1.77;0.30;;;21.30;99.90;;;;;;5011988;28;20045;-83
2022/07/11 17:39:54;;;;;;;1.85;0.20;;;21.20;99.90;;;;;;5012853;28;20100;-81
2022/07/11 17:42:20;;;;;;;1.40;0.30;;;21.20;99.90;;;;;;4996784;28;20072;-82
2022/07/11 17:44:46;;;;;;;0.85;0.30;;;21.10;99.90;;;;;;4992823;28;20053;-83
2022/07/11 17:47:15;;;;;;;1.42;0.20;;;21.00;99.90;;;;;;5012629;28;20133;-83
2022/07/11 17:49:40;;;;;;;0.20;0.10;;;20.90;99.90;;;;;;4974521;28;20775;-82
2022/07/11 17:52:06;;;;;;;0.77;0.30;;;20.90;99.90;;;;;;5010871;28;20124;-81
2022/07/11 17:54:31;;;;;;;0.88;0.25;;;20.90;99.90;;;;;;4990448;28;20084;-82
2022/07/11 17:56:57;;;;;;;0.93;0.28;;;20.80;99.90;;;;;;4995254;28;20169;-81
2022/07/11 17:59:23;;;;;;;0.95;0.30;;;20.70;99.90;;;;;;4988678;28;20148;-80
2022/07/11 18:01:48;;;;;;;0.30;0.20;;;20.70;99.90;;;;;;4998063;28;20087;-79
2022/07/11 18:04:14;;;;;;;1.05;0.28;;;20.70;99.90;;;;;;5007353;28;20087;-80
2022/07/11 18:06:40;;;;;;;0.50;0.30;;;20.40;99.90;;;;;;5005966;28;20030;-81
2022/07/11 18:09:05;;;;;;;2.67;0.30;;;20.30;99.90;;;;;;4972880;28;21046;-82
2022/07/11 18:11:31;;;;;;;0.50;0.20;;;20.20;99.90;;;;;;4981412;28;20212;-81
2022/07/11 18:13:57;;;;;;;0.57;0.20;;;20.10;99.90;;;;;;4983505;28;20061;-82
2022/07/11 18:16:23;;;;;;;0.90;0.30;;;20.00;99.90;;;;;;4981999;28;20488;-80
2022/07/11 18:18:48;;;;;;;1.15;0.20;;;19.90;99.90;;;;;;5008346;28;20045;-81
2022/07/11 18:21:14;;;;;;;0.30;0.20;;;19.90;99.90;;;;;;4979180;28;20041;-82
2022/07/11 18:23:40;;;;;;;0.40;0.28;;;19.70;99.90;;;;;;4997479;28;20053;-80
2022/07/11 18:26:06;;;;;;;0.95;0.22;;;19.70;99.90;;;;;;4991259;28;20040;-78
2022/07/11 18:28:32;;;;;;;0.30;0.20;;;19.60;99.90;;;;;;4989544;28;20135;-82
2022/07/11 18:30:58;;;;;;;0.75;0.38;;;19.50;99.90;;;;;;4990502;28;20125;-80
2022/07/11 18:33:23;;;;;;;0.40;0.20;;;19.50;99.90;;;;;;4989235;28;20050;-78
2022/07/11 18:35:49;;;;;;;0.45;0.20;;;19.40;99.90;;;;;;4994818;28;20052;-81